Paradise Hot Springs, Idaho
Current Conditions -  °F | °C
As of 4:58 PM on Friday 21 Nov 2014 (Local Time) from KMUO Reporting Station
Haze Haze  
Wind Chill: 33°   Ceiling: 13000
Heat Index: 33°   Visibility: 5mi
Dew Point: 32°   Wind: 2mph
Humidity: 99%   Direction: 290°WNW
Pressure: 29.94"   Gusts: NA
Location:  43.2609°N, 115.781°W
Report Text: KMUO 212358Z AUTO 29002KT 5SM BR OVC130 00/00 A2994 RMK AO2 SLP164 T00030002 10016 21027 57017
Loading
Personal Weather Stations






























Interactive Weather Map New forecast layout! Learn more

10-Day Weather Forecast

Advertisements
Track Severe Weather on mobile